createdAt,value
2019-03-27T00:01:16.388Z,22.37
2019-03-27T00:03:47.694Z,21.70
2019-03-27T00:06:19.042Z,20.82
2019-03-27T00:08:50.107Z,20.40
2019-03-27T00:11:21.267Z,20.30
2019-03-27T00:13:52.563Z,21.65
2019-03-27T00:16:23.656Z,22.13
2019-03-27T00:18:54.781Z,21.80
2019-03-27T00:21:27.792Z,21.85
2019-03-27T00:23:58.933Z,22.67
2019-03-27T00:26:30.533Z,22.42
2019-03-27T00:29:01.699Z,23.87
2019-03-27T00:31:32.902Z,25.20
2019-03-27T00:34:04.095Z,23.70
2019-03-27T00:36:37.805Z,22.35
2019-03-27T00:39:09.036Z,22.73
2019-03-27T00:41:40.194Z,21.95
2019-03-27T00:44:11.232Z,21.23
2019-03-27T00:46:43.798Z,19.95
2019-03-27T00:49:15.822Z,21.25
2019-03-27T00:51:46.927Z,20.57
2019-03-27T00:54:18.143Z,29.92
2019-03-27T00:56:49.532Z,23.07
2019-03-27T00:59:22.340Z,19.30
2019-03-27T01:01:53.439Z,18.62
2019-03-27T01:04:33.347Z,18.62
2019-03-27T01:09:36.835Z,20.82
2019-03-27T01:12:08.072Z,20.05
2019-03-27T01:14:39.266Z,22.30
2019-03-27T01:17:10.529Z,23.45
2019-03-27T01:19:41.757Z,25.25
2019-03-27T01:22:12.932Z,27.45
2019-03-27T01:24:44.461Z,28.57
2019-03-27T01:27:15.703Z,26.70
2019-03-27T01:29:46.881Z,27.73
2019-03-27T01:32:18.231Z,27.02
2019-03-27T01:34:49.458Z,27.15
2019-03-27T01:37:20.827Z,27.37
2019-03-27T01:39:52.315Z,27.13
2019-03-27T01:42:23.524Z,27.65
2019-03-27T01:44:54.583Z,28.57
2019-03-27T01:47:25.707Z,27.98
2019-03-27T01:49:56.942Z,34.73
2019-03-27T01:52:28.101Z,32.95
2019-03-27T01:54:59.254Z,33.78
2019-03-27T01:57:30.450Z,32.35
2019-03-27T02:00:01.521Z,32.85
2019-03-27T02:02:34.424Z,33.33
2019-03-27T02:05:10.494Z,33.28
2019-03-27T02:07:41.606Z,32.05
2019-03-27T02:10:13.792Z,31.82
2019-03-27T02:12:45.038Z,30.95
2019-03-27T02:15:16.199Z,31.65
2019-03-27T02:17:47.290Z,30.70
2019-03-27T02:20:18.488Z,32.95
2019-03-27T02:22:49.739Z,28.95
2019-03-27T02:25:22.065Z,29.67
2019-03-27T02:27:53.313Z,30.50
2019-03-27T02:30:24.567Z,30.95
2019-03-27T02:32:55.632Z,29.75
2019-03-27T02:35:26.693Z,29.65
2019-03-27T02:37:57.703Z,30.20
2019-03-27T02:40:28.855Z,29.87
2019-03-27T02:43:00.089Z,29.50
2019-03-27T02:45:31.363Z,29.00
2019-03-27T02:48:02.568Z,30.02
2019-03-27T02:50:33.741Z,30.35
2019-03-27T02:53:04.934Z,32.78
2019-03-27T02:55:36.146Z,31.15
2019-03-27T02:58:07.577Z,30.45
2019-03-27T03:00:38.823Z,30.57
2019-03-27T03:03:10.008Z,31.40
2019-03-27T03:05:41.078Z,30.60
2019-03-27T03:08:12.159Z,31.42
2019-03-27T03:10:45.950Z,31.80
2019-03-27T03:13:16.374Z,32.38
2019-03-27T03:15:47.456Z,32.80
2019-03-27T03:18:18.589Z,31.93
2019-03-27T03:20:49.650Z,31.68
2019-03-27T03:23:20.656Z,33.35
2019-03-27T03:25:51.948Z,34.35
2019-03-27T03:28:23.071Z,36.73
2019-03-27T03:30:55.182Z,37.10
2019-03-27T03:33:26.418Z,37.50
2019-03-27T03:35:57.594Z,39.25
2019-03-27T03:38:28.659Z,40.43
2019-03-27T03:40:59.790Z,44.08
2019-03-27T03:43:30.950Z,46.30
2019-03-27T03:46:02.121Z,48.02
2019-03-27T03:48:35.656Z,52.62
2019-03-27T03:51:06.818Z,52.93
2019-03-27T03:53:38.126Z,52.80
2019-03-27T03:56:11.237Z,52.45
2019-03-27T03:58:42.418Z,47.95
2019-03-27T04:01:13.596Z,46.63
2019-03-27T04:03:44.914Z,46.63
2019-03-27T04:06:16.157Z,45.70
2019-03-27T04:08:47.172Z,40.83
2019-03-27T04:11:18.297Z,41.02
2019-03-27T04:13:49.621Z,41.35
2019-03-27T04:16:21.051Z,42.08
2019-03-27T04:18:52.202Z,45.92
2019-03-27T04:21:26.780Z,47.67
2019-03-27T04:23:56.170Z,51.65
2019-03-27T04:26:33.244Z,50.50
2019-03-27T04:29:01.783Z,50.12
2019-03-27T04:31:33.003Z,49.38
2019-03-27T04:34:04.085Z,49.20
2019-03-27T04:36:35.431Z,52.38
2019-03-27T04:39:06.494Z,49.60
2019-03-27T04:41:37.640Z,47.45
2019-03-27T04:44:08.668Z,46.65
2019-03-27T04:46:39.783Z,45.95
2019-03-27T04:49:10.804Z,46.05
2019-03-27T04:51:41.787Z,46.05
2019-03-27T04:54:13.031Z,45.08
2019-03-27T04:56:53.328Z,44.83
2019-03-27T04:59:24.363Z,43.83
2019-03-27T05:01:55.664Z,42.40
2019-03-27T05:04:27.418Z,41.02
2019-03-27T05:06:58.581Z,43.20
2019-03-27T05:09:29.747Z,43.87
2019-03-27T05:12:01.919Z,47.95
2019-03-27T05:14:32.950Z,50.83
2019-03-27T05:17:05.210Z,48.35
2019-03-27T05:19:36.376Z,46.05
2019-03-27T05:22:07.413Z,46.08
2019-03-27T05:24:38.428Z,46.90
2019-03-27T05:27:09.418Z,47.50
2019-03-27T05:29:40.835Z,47.23
2019-03-27T05:32:12.066Z,44.75
2019-03-27T05:34:43.265Z,44.20
2019-03-27T05:37:14.466Z,45.33
2019-03-27T05:39:45.564Z,51.20
2019-03-27T05:42:18.203Z,51.02
2019-03-27T05:44:49.251Z,52.70
2019-03-27T05:47:20.484Z,51.00
2019-03-27T05:49:51.724Z,50.48
2019-03-27T05:52:22.979Z,47.13
2019-03-27T05:54:54.078Z,47.13
2019-03-27T05:57:25.151Z,46.02
2019-03-27T05:59:56.551Z,42.95
2019-03-27T06:02:27.615Z,47.62
2019-03-27T06:04:59.002Z,49.30
2019-03-27T06:07:30.134Z,46.30
2019-03-27T06:10:01.230Z,44.33
2019-03-27T06:12:32.449Z,46.30
2019-03-27T06:15:06.583Z,44.20
2019-03-27T06:17:39.361Z,44.90
2019-03-27T06:20:10.555Z,44.83
2019-03-27T06:22:41.659Z,45.95
2019-03-27T06:25:12.858Z,46.83
2019-03-27T06:27:44.015Z,46.48
2019-03-27T06:30:17.996Z,42.48
2019-03-27T06:32:49.091Z,35.20
2019-03-27T06:35:20.438Z,42.23
2019-03-27T06:37:51.624Z,46.40
2019-03-27T06:40:22.912Z,48.40
2019-03-27T06:42:54.041Z,46.33
2019-03-27T06:45:25.214Z,43.10
2019-03-27T06:47:56.555Z,19.57
2019-03-27T06:50:27.637Z,15.75
2019-03-27T06:52:58.656Z,16.48
2019-03-27T06:55:29.690Z,22.05
2019-03-27T06:58:01.113Z,29.27
2019-03-27T07:00:36.664Z,37.80
2019-03-27T07:03:08.150Z,38.40
2019-03-27T07:05:39.381Z,37.28
2019-03-27T07:08:10.460Z,34.08
2019-03-27T07:10:42.466Z,28.98
2019-03-27T07:13:13.616Z,28.23
2019-03-27T07:15:44.819Z,9.48
2019-03-27T07:18:16.150Z,6.03
2019-03-27T07:20:47.365Z,4.85
2019-03-27T07:23:18.483Z,4.40
2019-03-27T07:25:49.675Z,4.60
2019-03-27T07:28:21.009Z,4.17
2019-03-27T07:30:52.000Z,3.80
2019-03-27T07:33:23.071Z,4.45
2019-03-27T07:35:55.269Z,3.80
2019-03-27T07:38:27.966Z,4.20
2019-03-27T07:40:58.978Z,4.17
2019-03-27T07:43:29.993Z,4.20
2019-03-27T07:46:01.158Z,5.00
2019-03-27T07:48:32.475Z,4.58
2019-03-27T07:51:03.428Z,5.03
2019-03-27T07:53:34.502Z,5.03
2019-03-27T07:56:06.822Z,4.00
2019-03-27T07:58:37.974Z,3.80
2019-03-27T08:01:11.015Z,4.22
2019-03-27T08:03:42.119Z,4.60
2019-03-27T08:06:13.226Z,4.08
2019-03-27T08:08:44.201Z,4.40
2019-03-27T08:11:15.283Z,4.47
2019-03-27T08:13:46.217Z,4.40
2019-03-27T08:16:17.509Z,4.03
2019-03-27T08:18:48.460Z,4.42
2019-03-27T08:21:23.267Z,4.45
2019-03-27T08:23:54.342Z,5.17
2019-03-27T08:26:25.729Z,4.83
2019-03-27T08:28:57.325Z,6.12
2019-03-27T08:31:28.419Z,38.73
2019-03-27T08:33:59.540Z,7.15
2019-03-27T08:36:30.977Z,6.30
2019-03-27T08:39:03.415Z,6.60
2019-03-27T08:41:35.867Z,5.12
2019-03-27T08:44:09.921Z,4.60
2019-03-27T08:46:41.025Z,4.45
2019-03-27T08:49:21.778Z,5.00
2019-03-27T08:51:44.832Z,4.72
2019-03-27T08:54:16.163Z,4.90
2019-03-27T08:56:47.287Z,4.70
2019-03-27T08:59:18.435Z,4.70
2019-03-27T09:01:49.659Z,5.10
2019-03-27T09:04:20.730Z,4.97
2019-03-27T09:06:51.653Z,5.17
2019-03-27T09:09:23.075Z,4.92
2019-03-27T09:11:54.075Z,4.70
2019-03-27T09:14:25.251Z,5.47
2019-03-27T09:16:56.285Z,6.83
2019-03-27T09:19:35.548Z,5.53
2019-03-27T09:22:02.746Z,5.90
2019-03-27T09:24:33.804Z,5.92
2019-03-27T09:27:04.760Z,6.17
2019-03-27T09:29:35.775Z,5.83
2019-03-27T09:32:06.824Z,6.25
2019-03-27T09:34:37.970Z,6.55
2019-03-27T09:37:09.092Z,6.35
2019-03-27T09:39:40.200Z,6.03
2019-03-27T09:42:11.201Z,6.03
2019-03-27T09:44:42.253Z,5.58
2019-03-27T09:47:13.477Z,6.05
2019-03-27T09:49:49.823Z,5.75
2019-03-27T09:52:17.620Z,44.13
2019-03-27T09:54:48.950Z,6.47
2019-03-27T09:57:20.318Z,6.90
2019-03-27T09:59:54.098Z,5.60
2019-03-27T10:02:25.022Z,5.45
2019-03-27T10:04:56.208Z,5.30
2019-03-27T10:07:27.170Z,5.75
2019-03-27T10:09:58.489Z,4.72
2019-03-27T10:12:29.784Z,4.60
2019-03-27T10:15:00.785Z,5.17
2019-03-27T10:17:31.808Z,5.78
2019-03-27T10:20:04.065Z,5.72
2019-03-27T10:22:37.234Z,5.95
2019-03-27T10:25:08.487Z,6.37
2019-03-27T10:27:43.129Z,6.00
2019-03-27T10:30:15.481Z,6.00
2019-03-27T10:32:46.317Z,6.37
2019-03-27T10:35:17.402Z,6.60
2019-03-27T10:37:48.417Z,5.75
2019-03-27T10:40:19.493Z,5.83
2019-03-27T10:42:50.493Z,6.12
2019-03-27T10:45:21.765Z,6.83
2019-03-27T10:47:52.886Z,12.88
2019-03-27T10:50:24.052Z,7.50
2019-03-27T10:52:55.265Z,7.22
2019-03-27T10:55:29.326Z,7.00
2019-03-27T10:58:00.549Z,8.50
2019-03-27T11:00:32.456Z,7.83
2019-03-27T11:03:03.616Z,7.75
2019-03-27T11:05:38.352Z,6.65
2019-03-27T11:08:11.738Z,6.50
2019-03-27T11:10:44.976Z,7.47
2019-03-27T11:13:18.158Z,7.65
2019-03-27T11:15:49.611Z,9.55
2019-03-27T11:18:21.989Z,7.70
2019-03-27T11:20:53.295Z,8.38
2019-03-27T11:23:25.283Z,8.13
2019-03-27T11:25:56.359Z,7.97
2019-03-27T11:28:27.344Z,7.67
2019-03-27T11:30:58.354Z,8.15
2019-03-27T11:33:29.568Z,8.13
2019-03-27T11:36:00.625Z,7.87
2019-03-27T11:38:31.744Z,8.33
2019-03-27T11:41:04.716Z,7.65
2019-03-27T11:43:35.747Z,7.78
2019-03-27T11:46:06.882Z,8.20
2019-03-27T11:48:37.923Z,7.78
2019-03-27T11:51:09.105Z,9.08
2019-03-27T11:53:40.393Z,9.63
2019-03-27T11:56:11.591Z,9.58
2019-03-27T11:58:42.860Z,9.13
2019-03-27T12:01:13.942Z,9.38
2019-03-27T12:03:45.050Z,9.18
2019-03-27T12:06:17.840Z,8.63
2019-03-27T12:08:50.985Z,9.90
2019-03-27T12:11:22.315Z,9.83
2019-03-27T12:13:53.436Z,10.15
2019-03-27T12:16:24.665Z,9.78
2019-03-27T12:18:55.740Z,10.20
2019-03-27T12:21:26.736Z,9.68
2019-03-27T12:23:57.922Z,10.32
2019-03-27T12:26:29.145Z,11.85
2019-03-27T12:29:00.209Z,16.05
2019-03-27T12:31:31.363Z,16.73
2019-03-27T12:34:02.537Z,17.48
2019-03-27T12:36:33.747Z,18.73
2019-03-27T12:39:06.667Z,18.00
2019-03-27T12:41:38.731Z,22.67
2019-03-27T12:44:09.928Z,25.43
2019-03-27T12:46:42.342Z,28.20
2019-03-27T12:49:13.459Z,27.85
2019-03-27T12:51:44.634Z,26.48
2019-03-27T12:54:15.714Z,27.58
2019-03-27T12:56:46.823Z,24.70
2019-03-27T12:59:17.772Z,24.12
2019-03-27T13:01:52.500Z,25.75
2019-03-27T13:04:23.748Z,24.37
2019-03-27T13:06:55.060Z,22.75
2019-03-27T13:09:26.146Z,22.65
2019-03-27T13:11:58.220Z,22.52
2019-03-27T13:14:29.385Z,24.50
2019-03-27T13:17:00.515Z,26.97
2019-03-27T13:19:31.714Z,21.20
2019-03-27T13:22:02.810Z,18.73
2019-03-27T13:24:33.938Z,20.95
2019-03-27T13:27:05.604Z,18.85
2019-03-27T13:29:36.648Z,17.65
2019-03-27T13:32:07.786Z,16.42
2019-03-27T13:34:38.792Z,15.25
2019-03-27T13:37:09.921Z,18.55
2019-03-27T13:39:41.166Z,17.75
2019-03-27T13:42:13.198Z,15.48
2019-03-27T13:44:44.437Z,17.00
2019-03-27T13:47:15.547Z,17.12
2019-03-27T13:49:46.790Z,19.82
2019-03-27T13:52:17.929Z,17.77
2019-03-27T13:54:49.156Z,20.08
2019-03-27T13:57:20.245Z,19.00
2019-03-27T13:59:51.457Z,18.60
2019-03-27T14:02:22.460Z,19.48
2019-03-27T14:04:53.683Z,18.92
2019-03-27T14:07:27.582Z,18.17
2019-03-27T14:09:58.738Z,21.42
2019-03-27T14:12:30.113Z,23.90
2019-03-27T14:15:01.801Z,25.60
2019-03-27T14:17:33.556Z,30.23
2019-03-27T14:20:06.625Z,36.20
2019-03-27T14:22:38.738Z,36.77
2019-03-27T14:25:09.912Z,35.95
2019-03-27T14:27:41.288Z,33.18
2019-03-27T14:30:17.002Z,31.40
2019-03-27T14:32:50.380Z,30.70
2019-03-27T14:35:21.444Z,36.00
2019-03-27T14:37:52.433Z,36.05
2019-03-27T14:40:23.586Z,37.70
2019-03-27T14:42:56.773Z,47.88
2019-03-27T14:45:28.127Z,48.60
2019-03-27T14:48:01.090Z,61.28
2019-03-27T14:50:32.209Z,54.03
2019-03-27T14:53:04.256Z,56.60
2019-03-27T14:55:35.487Z,62.50
2019-03-27T14:58:06.810Z,63.02
2019-03-27T15:00:39.520Z,54.10
2019-03-27T15:03:10.647Z,62.88
2019-03-27T15:05:41.809Z,70.92
2019-03-27T15:08:13.061Z,70.95
2019-03-27T15:10:44.077Z,66.67
2019-03-27T15:13:25.547Z,68.40
2019-03-27T15:15:56.871Z,60.65
2019-03-27T15:18:28.072Z,64.15
2019-03-27T15:20:59.238Z,62.53
2019-03-27T15:23:30.465Z,61.75
2019-03-27T15:26:01.652Z,59.25
2019-03-27T15:28:32.856Z,57.05
2019-03-27T15:31:03.999Z,49.93
2019-03-27T15:33:35.081Z,49.75
2019-03-27T15:36:06.082Z,48.83
2019-03-27T15:38:37.283Z,46.20
2019-03-27T15:41:08.445Z,44.67
2019-03-27T15:43:39.598Z,39.63
2019-03-27T15:46:10.771Z,34.33
2019-03-27T15:48:41.822Z,32.48
2019-03-27T15:51:12.864Z,29.57
2019-03-27T15:53:47.319Z,23.62
2019-03-27T15:56:18.307Z,27.77
2019-03-27T15:58:49.300Z,22.95
2019-03-27T16:01:20.305Z,22.37
2019-03-27T16:03:51.467Z,20.05
2019-03-27T16:06:22.497Z,20.17
2019-03-27T16:08:53.627Z,19.10
2019-03-27T16:11:25.731Z,22.15
2019-03-27T16:13:56.957Z,23.75
2019-03-27T16:16:28.003Z,22.87
2019-03-27T16:18:59.189Z,21.30
2019-03-27T16:21:30.357Z,21.80
2019-03-27T16:24:06.542Z,20.50
2019-03-27T16:26:34.321Z,20.15
2019-03-27T16:29:05.442Z,19.10
2019-03-27T16:31:36.575Z,17.00
2019-03-27T16:34:07.657Z,18.85
2019-03-27T16:36:38.699Z,18.05
2019-03-27T16:39:09.933Z,16.65
2019-03-27T16:41:41.014Z,16.02
2019-03-27T16:44:12.054Z,17.77
2019-03-27T16:46:43.195Z,17.23
2019-03-27T16:49:14.409Z,17.82
2019-03-27T16:51:45.574Z,15.95
2019-03-27T16:54:16.769Z,14.00
2019-03-27T16:56:47.828Z,16.40
2019-03-27T16:59:18.857Z,18.80
2019-03-27T17:01:49.957Z,17.25
2019-03-27T17:04:21.422Z,19.30
2019-03-27T17:06:52.776Z,19.00
2019-03-27T17:09:23.784Z,25.92
2019-03-27T17:11:54.819Z,17.27
2019-03-27T17:14:25.897Z,14.45
2019-03-27T17:16:56.964Z,16.62
2019-03-27T17:19:28.213Z,17.07
2019-03-27T17:21:59.290Z,18.98
2019-03-27T17:24:30.534Z,22.48
2019-03-27T17:27:01.931Z,21.70
2019-03-27T17:29:33.202Z,22.95
2019-03-27T17:32:04.580Z,18.87
2019-03-27T17:34:35.765Z,19.52
2019-03-27T17:37:09.050Z,23.22
2019-03-27T17:39:40.434Z,28.57
2019-03-27T17:42:11.830Z,31.42
2019-03-27T17:44:42.953Z,27.73
2019-03-27T17:47:14.092Z,27.35
2019-03-27T17:49:45.594Z,32.42
2019-03-27T17:52:16.728Z,32.80
2019-03-27T17:54:47.807Z,32.50
2019-03-27T17:57:18.895Z,37.10
2019-03-27T17:59:50.156Z,38.78
2019-03-27T18:02:21.271Z,36.70
2019-03-27T18:04:52.459Z,36.85
2019-03-27T18:07:23.990Z,36.88
2019-03-27T18:09:55.038Z,37.20
2019-03-27T18:12:28.782Z,34.63
2019-03-27T18:15:00.151Z,34.05
2019-03-27T18:17:31.379Z,33.42
2019-03-27T18:20:02.533Z,31.10
2019-03-27T18:22:33.824Z,33.50
2019-03-27T18:25:06.316Z,29.25
2019-03-27T18:27:37.396Z,28.55
2019-03-27T18:30:08.523Z,32.48
2019-03-27T18:32:39.811Z,31.90
2019-03-27T18:35:11.195Z,36.23
2019-03-27T18:37:42.363Z,31.27
2019-03-27T18:40:13.459Z,33.98
2019-03-27T18:42:44.649Z,30.88
2019-03-27T18:45:15.768Z,29.55
2019-03-27T18:47:47.082Z,26.27
2019-03-27T18:50:18.290Z,22.00
2019-03-27T18:52:49.406Z,21.68
2019-03-27T18:55:26.472Z,19.67
2019-03-27T18:57:59.972Z,17.00
2019-03-27T19:00:26.778Z,16.77
2019-03-27T19:02:58.180Z,16.42
2019-03-27T19:05:30.265Z,16.27
2019-03-27T19:08:01.308Z,15.68
2019-03-27T19:10:32.467Z,13.85
2019-03-27T19:13:03.491Z,15.93
2019-03-27T19:15:35.736Z,15.30
2019-03-27T19:18:06.778Z,15.55
2019-03-27T19:20:37.863Z,15.40
2019-03-27T19:23:08.885Z,15.75
2019-03-27T19:25:43.032Z,17.17
2019-03-27T19:28:14.141Z,18.40
2019-03-27T19:30:45.452Z,20.55
2019-03-27T19:33:17.757Z,21.42
2019-03-27T19:35:49.042Z,22.32
2019-03-27T19:38:20.199Z,22.55
2019-03-27T19:40:52.392Z,23.95
2019-03-27T19:43:23.565Z,27.52
2019-03-27T19:45:57.384Z,26.50
2019-03-27T19:48:27.590Z,28.15
2019-03-27T19:50:58.712Z,29.15
2019-03-27T19:53:29.900Z,29.82
2019-03-27T19:56:01.171Z,32.20
2019-03-27T19:58:33.508Z,31.55
2019-03-27T20:01:05.619Z,32.98
2019-03-27T20:03:38.040Z,32.03
2019-03-27T20:06:09.348Z,32.15
2019-03-27T20:08:40.545Z,32.42
2019-03-27T20:11:11.876Z,33.15
2019-03-27T20:13:43.022Z,32.42
2019-03-27T20:16:14.227Z,31.45
2019-03-27T20:18:45.340Z,32.95
2019-03-27T20:21:16.384Z,33.53
2019-03-27T20:23:47.520Z,31.93
2019-03-27T20:26:18.703Z,32.67
2019-03-27T20:28:49.856Z,31.85
2019-03-27T20:31:21.152Z,31.05
2019-03-27T20:33:52.255Z,33.10
2019-03-27T20:36:27.895Z,31.82
2019-03-27T20:38:59.479Z,31.68
2019-03-27T20:41:30.535Z,29.30
2019-03-27T20:44:01.951Z,29.23
2019-03-27T20:46:33.188Z,29.30
2019-03-27T20:49:04.449Z,30.10
2019-03-27T20:51:36.164Z,29.92
2019-03-27T20:54:07.263Z,28.20
2019-03-27T20:56:39.496Z,30.35
2019-03-27T20:59:18.154Z,30.02
2019-03-27T21:01:47.895Z,27.90
2019-03-27T21:04:20.824Z,28.98
2019-03-27T21:06:52.251Z,28.85
2019-03-27T21:09:23.450Z,27.52
2019-03-27T21:11:56.142Z,27.25
2019-03-27T21:14:27.607Z,28.52
2019-03-27T21:16:58.724Z,29.40
2019-03-27T21:19:29.753Z,28.52
2019-03-27T21:22:00.996Z,24.75
2019-03-27T21:24:32.092Z,25.57
2019-03-27T21:27:03.130Z,24.50
2019-03-27T21:29:34.301Z,23.92
2019-03-27T21:32:05.405Z,24.35
2019-03-27T21:34:36.468Z,21.68
2019-03-27T21:37:08.467Z,21.90
2019-03-27T21:39:39.489Z,21.10
2019-03-27T21:42:11.686Z,20.92
2019-03-27T21:44:45.092Z,20.50
2019-03-27T21:47:16.317Z,19.12
2019-03-27T21:49:47.360Z,22.20
2019-03-27T21:52:18.561Z,21.80
2019-03-27T21:54:49.929Z,21.45
2019-03-27T21:57:21.041Z,21.50
2019-03-27T21:59:53.378Z,22.27
2019-03-27T22:02:25.856Z,21.07
2019-03-27T22:04:57.946Z,21.85
2019-03-27T22:07:29.048Z,22.37
2019-03-27T22:10:00.398Z,22.65
2019-03-27T22:12:31.645Z,22.87
2019-03-27T22:15:02.688Z,23.70
2019-03-27T22:17:33.930Z,22.65
2019-03-27T22:20:06.877Z,23.55
2019-03-27T22:22:38.218Z,22.73
2019-03-27T22:25:10.398Z,24.18
2019-03-27T22:27:41.436Z,25.05
2019-03-27T22:30:12.821Z,25.02
2019-03-27T22:32:43.980Z,23.80
2019-03-27T22:35:15.074Z,26.37
2019-03-27T22:37:46.258Z,27.07
2019-03-27T22:40:17.434Z,28.23
2019-03-27T22:42:48.725Z,24.90
2019-03-27T22:45:20.916Z,27.22
2019-03-27T22:47:52.000Z,27.27
2019-03-27T22:50:23.235Z,29.35
2019-03-27T22:52:54.382Z,30.60
2019-03-27T22:55:25.471Z,29.85
2019-03-27T22:57:56.573Z,29.25
2019-03-27T23:00:45.307Z,36.70
2019-03-27T23:03:18.606Z,32.77
2019-03-27T23:05:49.926Z,32.58
2019-03-27T23:08:22.066Z,31.80
2019-03-27T23:10:53.406Z,33.98
2019-03-27T23:13:24.512Z,33.65
2019-03-27T23:15:55.597Z,31.35
2019-03-27T23:18:30.507Z,31.87
2019-03-27T23:21:01.557Z,31.02
2019-03-27T23:23:32.606Z,28.65
2019-03-27T23:26:04.024Z,28.98
2019-03-27T23:28:35.138Z,29.82
2019-03-27T23:31:06.134Z,29.65
2019-03-27T23:33:37.272Z,28.57
2019-03-27T23:36:08.380Z,25.88
2019-03-27T23:38:39.697Z,24.72
2019-03-27T23:41:10.893Z,26.10
2019-03-27T23:43:43.087Z,28.05
2019-03-27T23:46:14.301Z,28.30
2019-03-27T23:48:49.906Z,26.70
2019-03-27T23:51:20.890Z,26.10
2019-03-27T23:53:51.932Z,27.13
2019-03-27T23:56:23.167Z,24.20
2019-03-27T23:59:00.286Z,24.37
